QY4911 / S5-ABW 7700 Squawk Report (23rd of January, 2020)

Time Lat Lon Altitude Heading Speed Vertical Rate
2020-01-23 23:42:21 GMT 51.429573 12.221775 0 87 3
2020-01-23 23:42:11 GMT 51.429405 12.221956 0 87 3
2020-01-23 23:41:21 GMT 51.428719 12.221269 0 154 5
2020-01-23 23:41:12 GMT 51.428722 12.221260 0 177 3
2020-01-23 23:40:57 GMT 51.429062 12.221269 0 208 4
2020-01-23 23:40:44 GMT 51.429062 12.221603 0 247 4
2020-01-23 23:40:27 GMT 51.428890 12.222123 0 264 6
2020-01-23 23:39:59 GMT 51.428551 12.223835 0 264 12
2020-01-23 23:39:43 GMT 51.428375 12.225204 0 264 12
2020-01-23 23:39:36 GMT 51.428200 12.225723 0 267 12
2020-01-23 23:39:29 GMT 51.428200 12.226238 0 264 11
2020-01-23 23:39:11 GMT 51.428040 12.227440 0 267 9
2020-01-23 23:38:57 GMT 51.427864 12.228470 0 264 12
2020-01-23 23:38:48 GMT 51.427689 12.229328 0 267 11
2020-01-23 23:38:37 GMT 51.427689 12.230010 0 264 12
2020-01-23 23:38:21 GMT 51.427513 12.231560 0 267 14
2020-01-23 23:38:16 GMT 51.427345 12.231903 0 267 13
2020-01-23 23:38:08 GMT 51.427353 12.232933 0 267 16
2020-01-23 23:37:49 GMT 51.427174 12.234817 0 230 15
2020-01-23 23:37:46 GMT 51.427177 12.235165 0 202 11
2020-01-23 23:36:32 GMT 51.427353 12.236881 0 194 12
2020-01-23 23:36:26 GMT 51.427689 12.237229 0 191 11
2020-01-23 23:36:08 GMT 51.428722 12.238083 0 196 17
2020-01-23 23:36:05 GMT 51.428890 12.238250 0 194 16
2020-01-23 23:35:55 GMT 51.429405 12.238770 0 194 10
2020-01-23 23:35:45 GMT 51.429577 12.239122 0 191 4
2020-01-23 23:35:34 GMT 51.429413 12.239285 0 191 5
2020-01-23 23:35:25 GMT 51.429234 12.239456 0 191 5
2020-01-23 23:35:14 GMT 51.429234 12.239809 0 194 4
2020-01-23 23:35:02 GMT 51.429234 12.240143 0 194 5
We lost coverage of the aircraft here for a total of 9 minutes
2020-01-23 23:25:41 GMT 51.440552 12.279597 175 267 131 -640
2020-01-23 23:25:37 GMT 51.440735 12.283531 225 267 132 -832
2020-01-23 23:25:33 GMT 51.440735 12.286946 275 267 132 -704
2020-01-23 23:25:29 GMT 51.440918 12.291252 325 267 132 -704
2020-01-23 23:25:24 GMT 51.441246 12.296906 375 267 132 -768
2020-01-23 23:25:13 GMT 51.441605 12.306914 525 267 131 -704
2020-01-23 23:25:08 GMT 51.441757 12.311325 575 268 131 -640
2020-01-23 23:25:03 GMT 51.441944 12.316360 675 267 132 -768
2020-01-23 23:24:57 GMT 51.442108 12.322874 700 267 132 -768
2020-01-23 23:24:50 GMT 51.442272 12.328873 750 267 133 -896
2020-01-23 23:24:46 GMT 51.442455 12.333527 850 267 133 -768
2020-01-23 23:24:42 GMT 51.442612 12.340913 925 267 132 -704
2020-01-23 23:24:38 GMT 51.442612 12.340913 950 267 133 -704
2020-01-23 23:24:35 GMT 51.442783 12.343826 975 267 132 -704
2020-01-23 23:24:31 GMT 51.442978 12.347371 1,025 267 132 -704
2020-01-23 23:24:28 GMT 51.442978 12.350637 1,050 267 131 -640
2020-01-23 23:24:21 GMT 51.443298 12.357169 1,125 267 131 -768
2020-01-23 23:24:18 GMT 51.443481 12.363510 1,225 267 131 -768
2020-01-23 23:24:10 GMT 51.443665 12.368007 1,275 267 131 -768
2020-01-23 23:24:05 GMT 51.443802 12.373352 1,350 267 130 -704
2020-01-23 23:24:01 GMT 51.443993 12.377090 1,400 267 129 -704
2020-01-23 23:23:55 GMT 51.444180 12.383118 1,475 267 127 -640
2020-01-23 23:23:51 GMT 51.444351 12.386714 1,525 267 126 -704
2020-01-23 23:23:45 GMT 51.444508 12.392349 1,600 267 125 -704
2020-01-23 23:23:41 GMT 51.444672 12.395622 1,650 267 125 -704
2020-01-23 23:23:38 GMT 51.444832 12.398758 1,675 267 125 -640
2020-01-23 23:23:35 GMT 51.445038 12.404381 1,725 267 144 -896
2020-01-23 23:23:32 GMT 51.445038 12.404381 1,750 266 125 -704
2020-01-23 23:23:28 GMT 51.445175 12.408167 1,775 266 127 -768
2020-01-23 23:23:25 GMT 51.445343 12.410889 1,825 267 129 -832
2020-01-23 23:23:21 GMT 51.445358 12.414180 1,900 267 134 -768
2020-01-23 23:23:18 GMT 51.445541 12.417446 1,900 267 135 -832
2020-01-23 23:23:14 GMT 51.445717 12.421188 1,950 267 139 -832
2020-01-23 23:23:10 GMT 51.445904 12.425842 2,025 267 144 -896
2020-01-23 23:23:07 GMT 51.445862 12.428581 2,050 267 147 -832
2020-01-23 23:23:04 GMT 51.446045 12.432515 2,100 267 152 -832
2020-01-23 23:23:00 GMT 51.446228 12.437897 2,175 267 159 -960
2020-01-23 23:22:54 GMT 51.446415 12.444077 2,250 267 163 -960
2020-01-23 23:22:49 GMT 51.446926 12.460022 2,375 267 173 -1216
2020-01-23 23:22:41 GMT 51.446926 12.460022 2,475 268 172 -1152
2020-01-23 23:22:31 GMT 51.447418 12.473268 2,675 267 179 -1152
2020-01-23 23:22:28 GMT 51.447578 12.476654 2,725 266 181 -1088
2020-01-23 23:22:18 GMT 51.448090 12.490234 2,875 267 190 -640
2020-01-23 23:22:11 GMT 51.448608 12.500883 2,925 267 203 -576
2020-01-23 23:22:08 GMT 51.449162 12.520981 2,950 267 208 -768
2020-01-23 23:21:58 GMT 51.449162 12.520981 3,150 268 212 -1408
2020-01-23 23:21:52 GMT 51.449478 12.529388 3,150 268 212 -1408
2020-01-23 23:21:48 GMT 51.449844 12.537627 3,375 267 211 -1152
2020-01-23 23:21:40 GMT 51.450325 12.549591 3,525 266 209 -1152
2020-01-23 23:21:37 GMT 51.450348 12.553068 3,575 266 208 -1152
2020-01-23 23:21:27 GMT 51.451218 12.568359 3,775 265 205 -1088
2020-01-23 23:21:23 GMT 51.451721 12.577057 3,850 265 205 -1088
2020-01-23 23:21:19 GMT 51.451908 12.580872 3,900 265 206 -1088
2020-01-23 23:21:12 GMT 51.452591 12.591520 4,025 265 207 -1152
2020-01-23 23:21:09 GMT 51.453072 12.601089 4,075 265 208 -1152
2020-01-23 23:21:06 GMT 51.453072 12.601089 4,125 265 209 -1152
2020-01-23 23:21:02 GMT 51.453445 12.607803 4,225 265 210 -1152
2020-01-23 23:20:59 GMT 51.453598 12.610746 4,250 266 211 -1152
2020-01-23 23:20:56 GMT 51.454468 12.627077 4,375 268 217 -1216
2020-01-23 23:20:50 GMT 51.454468 12.627077 4,450 266 214 -1088
2020-01-23 23:20:46 GMT 51.454651 12.632050 4,525 267 215 -1152
2020-01-23 23:20:42 GMT 51.454979 12.638702 4,600 267 215 -1152
2020-01-23 23:20:39 GMT 51.455154 12.642814 4,675 268 216 -1152
2020-01-23 23:20:36 GMT 51.455307 12.648315 4,725 268 216 -1216
2020-01-23 23:20:32 GMT 51.455490 12.656021 4,800 268 217 -1216
2020-01-23 23:20:29 GMT 51.455490 12.659302 4,875 269 217 -1216
2020-01-23 23:20:26 GMT 51.455677 12.664948 4,925 269 218 -1280
2020-01-23 23:20:22 GMT 51.455818 12.677307 5,050 269 218 -1280
2020-01-23 23:20:18 GMT 51.455818 12.677307 5,075 269 218 -1280
2020-01-23 23:20:14 GMT 51.456005 12.682495 5,150 269 218 -1280
2020-01-23 23:20:11 GMT 51.456024 12.688467 5,175 269 218 -1152
2020-01-23 23:20:08 GMT 51.456188 12.693329 5,300 269 218 -1152
2020-01-23 23:20:04 GMT 51.456161 12.698785 5,925 266 220 -832
2020-01-23 23:20:01 GMT 51.456329 12.705002 5,425 268 218 -1024
2020-01-23 23:19:57 GMT 51.456516 12.710114 5,475 268 218 -1024
2020-01-23 23:19:54 GMT 51.456516 12.714615 5,525 268 218 -960
2020-01-23 23:19:51 GMT 51.456848 12.721426 5,575 267 219 -896
2020-01-23 23:19:48 GMT 51.457027 12.726288 5,625 267 219 -896
2020-01-23 23:19:43 GMT 51.457397 12.733822 5,675 266 220 -896
2020-01-23 23:19:40 GMT 51.457535 12.737608 5,750 266 220 -832
2020-01-23 23:19:37 GMT 51.457726 12.742538 5,750 266 220 -832
2020-01-23 23:19:33 GMT 51.458221 12.752009 5,850 266 220 -704
2020-01-23 23:19:30 GMT 51.458424 12.754211 6,075 265 220 -640
2020-01-23 23:19:27 GMT 51.458565 12.759552 5,900 265 221 -704
2020-01-23 23:19:22 GMT 51.459450 12.769165 5,925 264 221 -640
2020-01-23 23:19:18 GMT 51.459774 12.773819 6,025 260 220 -640
2020-01-23 23:19:15 GMT 51.460464 12.780514 6,000 262 221 -640
2020-01-23 23:19:12 GMT 51.460983 12.784805 6,075 259 221 -640
2020-01-23 23:19:08 GMT 51.461655 12.790090 6,100 256 219 -640
2020-01-23 23:19:04 GMT 51.462894 12.797318 6,150 253 219 -640
2020-01-23 23:19:00 GMT 51.464264 12.803155 6,200 250 218 -576
2020-01-23 23:18:57 GMT 51.465271 12.807460 6,225 249 218 -512
2020-01-23 23:18:53 GMT 51.466644 12.813473 6,250 249 217 -512
2020-01-23 23:18:50 GMT 51.468899 12.823563 6,300 254 218 -640
2020-01-23 23:18:46 GMT 51.468899 12.823563 6,300 256 218 -832
2020-01-23 23:18:41 GMT 51.468899 12.837830 6,450 282 224 -1024
2020-01-23 23:18:38 GMT 51.468899 12.837830 6,450 282 224 -1024
2020-01-23 23:18:34 GMT 51.467690 12.844162 6,500 291 226 -1024
2020-01-23 23:18:30 GMT 51.465454 12.850571 6,600 306 229 -1024
2020-01-23 23:18:26 GMT 51.463219 12.854843 6,625 310 230 -1024
2020-01-23 23:18:21 GMT 51.458908 12.860165 6,725 329 235 -1024
2020-01-23 23:18:18 GMT 51.456711 12.862244 6,800 337 236 -1024
2020-01-23 23:18:15 GMT 51.453583 12.864304 6,825 342 238 -960
2020-01-23 23:18:11 GMT 51.444855 12.867514 6,950 351 241 -960
2020-01-23 23:18:08 GMT 51.444855 12.867514 6,975 351 242 -960
2020-01-23 23:18:02 GMT 51.435570 12.869797 7,075 352 245 -960
2020-01-23 23:17:59 GMT 51.435570 12.869797 7,075 352 247 -960
2020-01-23 23:17:55 GMT 51.431610 12.870789 7,125 352 248 -960
2020-01-23 23:17:51 GMT 51.426117 12.872162 7,225 352 253 -960
2020-01-23 23:17:45 GMT 51.419971 12.873688 7,300 352 256 -1024
2020-01-23 23:17:41 GMT 51.414139 12.875086 7,375 351 259 -1024
2020-01-23 23:17:37 GMT 51.409637 12.876282 7,450 351 261 -1152
2020-01-23 23:17:34 GMT 51.407265 12.876968 7,500 351 263 -1280
2020-01-23 23:17:31 GMT 51.402603 12.877981 7,575 352 265 -1472
2020-01-23 23:17:28 GMT 51.399170 12.878872 7,675 352 266 -1344
2020-01-23 23:17:25 GMT 51.395416 12.879911 7,675 352 266 -1344
2020-01-23 23:17:21 GMT 51.390930 12.880950 7,800 352 268 -1408
2020-01-23 23:17:18 GMT 51.387154 12.881775 7,825 352 267 -1472
2020-01-23 23:17:14 GMT 51.382187 12.882954 8,025 352 267 -1344
2020-01-23 23:17:11 GMT 51.376865 12.884216 8,075 352 268 -1344
2020-01-23 23:17:08 GMT 51.374313 12.884884 8,125 352 268 -1344
2020-01-23 23:17:05 GMT 51.367599 12.886276 8,225 353 268 -1344
2020-01-23 23:16:59 GMT 51.363644 12.887115 8,325 353 268 -1344
2020-01-23 23:16:56 GMT 51.359688 12.887955 8,400 353 269 -1344
2020-01-23 23:16:52 GMT 51.355591 12.888967 8,475 353 269 -1408
2020-01-23 23:16:49 GMT 51.351654 12.889858 8,550 352 269 -1344
2020-01-23 23:16:46 GMT 51.347672 12.890749 8,800 352 268 -1344
2020-01-23 23:16:42 GMT 51.343067 12.891769 8,800 352 268 -1408
2020-01-23 23:16:39 GMT 51.339294 12.892605 8,775 352 268 -1408
2020-01-23 23:16:35 GMT 51.333618 12.893982 8,875 352 268 -1408
2020-01-23 23:16:32 GMT 51.330368 12.894831 9,050 352 268 -1344
2020-01-23 23:16:29 GMT 51.327240 12.895508 9,000 352 268 -1344
2020-01-23 23:16:25 GMT 51.322308 12.896729 9,100 352 269 -1344
2020-01-23 23:16:22 GMT 51.314392 12.898407 9,175 352 269 -1344
2020-01-23 23:16:19 GMT 51.314392 12.898407 9,300 352 269 -1344
2020-01-23 23:16:14 GMT 51.307709 12.899953 9,400 352 269 -1344
2020-01-23 23:16:11 GMT 51.305126 12.900467 9,450 352 269 -1344
2020-01-23 23:16:08 GMT 51.301498 12.901382 9,450 352 269 -1344
2020-01-23 23:16:05 GMT 51.297215 12.902374 9,525 352 268 -1344
2020-01-23 23:16:01 GMT 51.292744 12.903214 9,600 352 268 -1344
2020-01-23 23:15:58 GMT 51.285049 12.904927 9,700 353 268 -1216
2020-01-23 23:15:55 GMT 51.285049 12.904927 9,750 353 267 -1216
2020-01-23 23:15:51 GMT 51.279694 12.906189 9,825 353 267 -1152
2020-01-23 23:15:48 GMT 51.276810 12.906857 10,025 351 265 -64
2020-01-23 23:15:43 GMT 51.269943 12.908564 9,975 352 266 -832
2020-01-23 23:15:40 GMT 51.267189 12.909088 10,000 352 266 -640
2020-01-23 23:15:37 GMT 51.261154 12.910643 10,025 352 265 64
2020-01-23 23:15:32 GMT 51.257217 12.911459 10,025 353 265 128
2020-01-23 23:15:29 GMT 51.249683 12.912369 10,025 359 265 -64
2020-01-23 23:15:23 GMT 51.245544 12.911831 10,025 7 264 -64
2020-01-23 23:15:19 GMT 51.240234 12.910123 10,025 16 263 64
2020-01-23 23:15:16 GMT 51.237301 12.908707 10,025 16 263 64
2020-01-23 23:15:13 GMT 51.233204 12.905960 10,025 25 263 128
2020-01-23 23:15:09 GMT 51.229568 12.902923 10,000 38 262 -64
2020-01-23 23:15:05 GMT 51.225311 12.897949 10,000 39 262 -64
2020-01-23 23:15:02 GMT 51.220505 12.890229 10,025 49 263 -192
2020-01-23 23:14:59 GMT 51.220505 12.890229 10,025 51 262 -192
2020-01-23 23:14:56 GMT 51.218262 12.885590 10,025 54 262 -64
2020-01-23 23:14:52 GMT 51.215839 12.879868 10,025 56 262 0
2020-01-23 23:14:48 GMT 51.212955 12.872849 10,025 57 262 192
2020-01-23 23:14:44 GMT 51.210342 12.866475 10,000 59 262 128
2020-01-23 23:14:40 GMT 51.207962 12.858977 10,000 67 262 -64
2020-01-23 23:14:36 GMT 51.206085 12.851035 10,000 72 263 -64
2020-01-23 23:14:32 GMT 51.204857 12.844696 10,025 75 263 0
2020-01-23 23:14:29 GMT 51.203842 12.837524 10,025 77 263 -64
2020-01-23 23:14:26 GMT 51.203339 12.833739 10,025 77 263 0
2020-01-23 23:14:23 GMT 51.202480 12.828064 10,025 77 263 -64
2020-01-23 23:14:20 GMT 51.200897 12.816696 10,025 77 263 0
2020-01-23 23:14:13 GMT 51.199722 12.808797 10,025 77 263 64
2020-01-23 23:14:10 GMT 51.199036 12.803192 10,025 77 263 64
2020-01-23 23:14:06 GMT 51.197826 12.794724 10,025 77 264 64
2020-01-23 23:14:03 GMT 51.197311 12.790985 10,000 77 264 64
2020-01-23 23:13:59 GMT 51.196102 12.781906 10,000 77 264 -64
2020-01-23 23:13:56 GMT 51.195267 12.775879 10,025 77 264 -128
2020-01-23 23:13:51 GMT 51.194054 12.767487 10,025 78 264 -192
2020-01-23 23:13:48 GMT 51.193359 12.761808 10,050 78 263 192
2020-01-23 23:13:45 GMT 51.192490 12.754904 10,050 78 263 128
2020-01-23 23:13:42 GMT 51.191666 12.748743 10,025 77 263 256
2020-01-23 23:13:39 GMT 51.191116 12.744957 10,025 76 263 256
2020-01-23 23:13:36 GMT 51.190292 12.739835 10,000 71 263 0
2020-01-23 23:13:33 GMT 51.188736 12.733303 10,000 66 263 -64
2020-01-23 23:13:29 GMT 51.186512 12.726593 10,000 55 262 0
2020-01-23 23:13:26 GMT 51.184937 12.722465 10,025 54 263 0
2020-01-23 23:13:23 GMT 51.182232 12.716293 10,025 54 263 0
2020-01-23 23:13:20 GMT 51.180508 12.712555 10,025 54 263 0
2020-01-23 23:13:17 GMT 51.177567 12.705985 10,025 54 263 0
2020-01-23 23:13:12 GMT 51.175156 12.700653 10,025 54 262 0
2020-01-23 23:13:09 GMT 51.172440 12.694702 10,025 54 262 0
2020-01-23 23:13:06 GMT 51.170361 12.690048 10,025 54 262 0
2020-01-23 23:13:03 GMT 51.165894 12.680227 10,025 54 262 0
2020-01-23 23:12:56 GMT 51.163143 12.674408 10,025 54 262 0
2020-01-23 23:12:53 GMT 51.160908 12.669449 10,025 54 262 0
2020-01-23 23:12:50 GMT 51.159027 12.665306 10,025 54 262 0
2020-01-23 23:12:47 GMT 51.156300 12.659302 10,025 54 262 0
2020-01-23 23:12:44 GMT 51.154587 12.655359 10,025 53 262 0
2020-01-23 23:12:41 GMT 51.152161 12.650386 10,000 53 261 0
2020-01-23 23:12:37 GMT 51.150108 12.645721 10,000 53 261 0
2020-01-23 23:12:31 GMT 51.145294 12.635465 10,025 53 261 0
2020-01-23 23:12:28 GMT 51.143600 12.631679 10,025 53 261 0
2020-01-23 23:12:23 GMT 51.139820 12.623444 10,025 53 260 0
2020-01-23 23:12:20 GMT 51.135536 12.614136 10,025 53 260 64
2020-01-23 23:12:13 GMT 51.132614 12.607628 10,000 54 260 0
2020-01-23 23:12:10 GMT 51.128464 12.598572 10,000 54 260 -128
2020-01-23 23:12:03 GMT 51.124878 12.590852 10,025 54 260 -256
2020-01-23 23:12:00 GMT 51.123505 12.587734 10,050 54 260 -256
2020-01-23 23:11:57 GMT 51.121433 12.583084 10,150 53 262 -576
2020-01-23 23:11:50 GMT 51.116135 12.571626 10,100 54 262 -448
2020-01-23 23:11:46 GMT 51.113525 12.565910 10,125 53 262 -512
2020-01-23 23:11:39 GMT 51.108910 12.555618 10,200 53 263 -704
2020-01-23 23:11:36 GMT 51.106861 12.551346 10,225 53 263 -704
2020-01-23 23:11:32 GMT 51.103092 12.543106 10,300 53 264 -704
2020-01-23 23:11:29 GMT 51.101696 12.539978 10,300 53 264 -704
2020-01-23 23:11:26 GMT 51.099136 12.534332 10,325 54 265 -704
2020-01-23 23:11:20 GMT 51.093979 12.523152 10,425 53 267 -640
2020-01-23 23:11:17 GMT 51.092617 12.520447 10,450 53 267 -640
2020-01-23 23:11:13 GMT 51.089859 12.514467 10,500 53 268 -640
2020-01-23 23:11:10 GMT 51.085403 12.504501 10,550 53 269 -576
2020-01-23 23:11:07 GMT 51.083176 12.499843 10,575 53 269 -576
2020-01-23 23:11:00 GMT 51.079395 12.491760 10,625 52 275 -704
2020-01-23 23:10:57 GMT 51.077682 12.488337 10,650 52 271 -576
2020-01-23 23:10:54 GMT 51.075623 12.483883 10,675 52 272 -704
2020-01-23 23:10:51 GMT 51.070267 12.473046 10,750 52 275 -704
2020-01-23 23:10:48 GMT 51.069077 12.470522 10,800 52 278 -640
2020-01-23 23:10:42 GMT 51.066330 12.464509 10,825 53 280 -704
2020-01-23 23:10:39 GMT 51.060497 12.452316 10,875 53 283 -704
2020-01-23 23:10:35 GMT 51.060497 12.452316 10,900 54 293 -704
2020-01-23 23:10:32 GMT 51.058456 12.447807 10,950 53 286 -704
2020-01-23 23:10:29 GMT 51.055889 12.442169 10,975 53 288 -704
2020-01-23 23:10:26 GMT 51.053280 12.436676 10,975 53 289 -704
2020-01-23 23:10:19 GMT 51.047791 12.424498 11,075 54 293 -704
2020-01-23 23:10:16 GMT 51.045738 12.420044 11,125 54 295 -704
2020-01-23 23:10:09 GMT 51.038338 12.403717 11,225 54 299 -768
2020-01-23 23:10:06 GMT 51.035450 12.397156 11,275 54 299 -768
2020-01-23 23:09:59 GMT 51.032333 12.389984 11,325 54 302 -832
2020-01-23 23:09:56 GMT 51.024124 12.371422 11,450 54 302 -960
2020-01-23 23:09:49 GMT 51.024124 12.371422 11,475 55 303 -1024
2020-01-23 23:09:46 GMT 51.021717 12.365952 11,600 54 304 -1024
2020-01-23 23:09:38 GMT 51.015526 12.352066 11,725 54 306 -960
2020-01-23 23:09:34 GMT 51.011944 12.343979 11,750 54 306 -1024
2020-01-23 23:09:31 GMT 51.009708 12.338791 11,800 54 306 -960
2020-01-23 23:09:28 GMT 51.006775 12.332306 11,850 54 306 -960
2020-01-23 23:09:25 GMT 51.004726 12.327805 11,900 54 306 -960
2020-01-23 23:09:21 GMT 51.001469 12.320480 11,950 54 306 -960
2020-01-23 23:09:18 GMT 50.998535 12.313919 12,025 54 306 -960
2020-01-23 23:09:15 GMT 50.996292 12.309141 12,050 54 306 -960
2020-01-23 23:09:12 GMT 50.994049 12.303945 12,325 54 306 -960
2020-01-23 23:09:08 GMT 50.990799 12.296745 12,175 54 307 -960
2020-01-23 23:09:05 GMT 50.988247 12.291260 12,200 54 306 -960
2020-01-23 23:09:02 GMT 50.985641 12.285461 12,275 54 307 -1024
2020-01-23 23:08:58 GMT 50.981869 12.277374 12,425 53 308 -1024
2020-01-23 23:08:54 GMT 50.978439 12.269650 12,375 53 308 -1024
2020-01-23 23:08:51 GMT 50.973118 12.258453 12,500 53 308 -1024
2020-01-23 23:08:47 GMT 50.970703 12.253022 12,525 53 309 -1024
2020-01-23 23:08:40 GMT 50.967636 12.246267 12,625 54 309 -1024
2020-01-23 23:08:37 GMT 50.964367 12.239227 12,700 54 309 -1024
2020-01-23 23:08:34 GMT 50.961960 12.233796 12,750 54 309 -1024
2020-01-23 23:08:30 GMT 50.958176 12.225342 12,825 54 309 -1024
2020-01-23 23:08:26 GMT 50.955276 12.219172 12,875 54 309 -960
2020-01-23 23:08:22 GMT 50.949425 12.206268 12,975 54 309 -960
2020-01-23 23:08:15 GMT 50.945480 12.197719 13,150 54 310 -960
2020-01-23 23:08:10 GMT 50.942230 12.190370 13,125 54 310 -960
2020-01-23 23:08:07 GMT 50.939648 12.184830 13,200 54 310 -960
2020-01-23 23:08:04 GMT 50.937241 12.179384 13,225 54 310 -960
2020-01-23 23:08:00 GMT 50.933640 12.171631 13,275 54 310 -1024
2020-01-23 23:07:56 GMT 50.930382 12.164230 13,375 54 311 -1024
2020-01-23 23:07:53 GMT 50.927444 12.157857 13,425 54 311 -1024
2020-01-23 23:07:50 GMT 50.925217 12.153091 13,525 54 311 -1024
2020-01-23 23:07:47 GMT 50.922821 12.147613 13,500 54 311 -1024
2020-01-23 23:07:44 GMT 50.920441 12.142416 13,550 54 313 -1024
2020-01-23 23:07:39 GMT 50.915955 12.132692 13,650 54 313 -960
2020-01-23 23:07:36 GMT 50.911514 12.123042 13,725 54 313 -960
2020-01-23 23:07:30 GMT 50.907711 12.114639 13,775 54 313 -960
2020-01-23 23:07:27 GMT 50.904964 12.108612 13,825 54 313 -960
2020-01-23 23:07:24 GMT 50.903244 12.104874 13,900 54 313 -960
2020-01-23 23:07:21 GMT 50.900867 12.099686 13,925 54 313 -960
2020-01-23 23:07:18 GMT 50.898285 12.094017 13,975 54 313 -960
2020-01-23 23:07:14 GMT 50.889694 12.074966 14,100 54 314 -960
2020-01-23 23:07:09 GMT 50.889694 12.074966 14,150 54 315 -960
2020-01-23 23:07:06 GMT 50.888489 12.072416 14,150 54 315 -1024
2020-01-23 23:07:03 GMT 50.885742 12.066403 14,200 54 315 -1024
2020-01-23 23:07:00 GMT 50.883179 12.060928 14,275 54 315 -960
2020-01-23 23:06:57 GMT 50.879562 12.053041 14,325 54 317 -960
2020-01-23 23:06:51 GMT 50.874939 12.042847 14,425 53 317 -960
2020-01-23 23:06:48 GMT 50.872375 12.037230 14,475 53 317 -960
2020-01-23 23:06:44 GMT 50.869263 12.030549 14,525 53 319 -960
2020-01-23 23:06:41 GMT 50.865646 12.022977 14,600 53 319 -960
2020-01-23 23:06:36 GMT 50.862415 12.015762 14,625 53 320 -960
2020-01-23 23:06:33 GMT 50.859810 12.010422 14,700 53 321 -960
2020-01-23 23:06:30 GMT 50.856903 12.004048 14,750 53 321 -896
2020-01-23 23:06:26 GMT 50.853153 11.996155 14,800 53 322 -896
2020-01-23 23:06:23 GMT 50.850220 11.990204 14,875 53 322 -896
2020-01-23 23:06:19 GMT 50.846775 11.982651 14,925 53 322 -768
2020-01-23 23:06:16 GMT 50.843353 11.975395 14,975 53 322 -640
2020-01-23 23:06:12 GMT 50.837677 11.963369 15,025 53 322 -256
2020-01-23 23:06:06 GMT 50.834949 11.957703 15,025 53 323 -64
2020-01-23 23:06:03 GMT 50.832531 11.952438 15,025 55 327 0
2020-01-23 23:06:00 GMT 50.826004 11.937982 15,025 54 325 64
2020-01-23 23:05:56 GMT 50.826004 11.937982 15,000 55 327 0
2020-01-23 23:05:53 GMT 50.823944 11.933379 15,000 55 328 0
2020-01-23 23:05:50 GMT 50.821358 11.927338 15,000 55 331 0
2020-01-23 23:05:46 GMT 50.817764 11.918904 15,000 55 334 0
2020-01-23 23:05:43 GMT 50.814835 11.912446 15,000 55 338 64
2020-01-23 23:05:40 GMT 50.812454 11.906730 15,000 55 341 64
2020-01-23 23:05:36 GMT 50.808517 11.897822 14,975 55 345 64
2020-01-23 23:05:32 GMT 50.804878 11.889954 14,975 54 347 64
2020-01-23 23:05:29 GMT 50.800278 11.879635 14,975 54 353 -128
2020-01-23 23:05:26 GMT 50.795975 11.870356 14,975 54 352 -64
2020-01-23 23:05:23 GMT 50.795975 11.870356 14,975 54 354 -64
2020-01-23 23:05:20 GMT 50.793240 11.864014 15,000 54 355 0
2020-01-23 23:05:17 GMT 50.791855 11.861077 15,000 54 355 0
2020-01-23 23:05:14 GMT 50.788071 11.853180 15,000 54 355 64
2020-01-23 23:05:11 GMT 50.785511 11.847382 15,000 54 355 -64
2020-01-23 23:05:08 GMT 50.779648 11.834641 15,000 53 356 64
2020-01-23 23:05:02 GMT 50.776062 11.827087 15,000 53 356 0
2020-01-23 23:04:59 GMT 50.773827 11.822128 15,000 53 356 0
2020-01-23 23:04:55 GMT 50.769699 11.813346 15,000 53 356 -64
2020-01-23 23:04:52 GMT 50.767124 11.807861 15,000 54 355 -64
2020-01-23 23:04:49 GMT 50.763885 11.800653 15,000 54 355 -64
2020-01-23 23:04:46 GMT 50.760933 11.794510 15,000 54 355 0
2020-01-23 23:04:43 GMT 50.757019 11.785583 15,000 54 355 0
2020-01-23 23:04:39 GMT 50.754414 11.780090 15,000 54 355 0
2020-01-23 23:04:36 GMT 50.751526 11.773855 15,000 54 355 0
2020-01-23 23:04:33 GMT 50.748917 11.768065 15,000 54 355 0
2020-01-23 23:04:29 GMT 50.744823 11.759109 15,000 54 354 0
2020-01-23 23:04:26 GMT 50.741547 11.752105 15,000 53 354 0
2020-01-23 23:04:23 GMT 50.739471 11.747437 15,000 53 355 0
2020-01-23 23:04:20 GMT 50.735367 11.738669 15,000 53 355 0
2020-01-23 23:04:17 GMT 50.733326 11.734085 15,000 53 355 0
2020-01-23 23:04:14 GMT 50.729874 11.727014 15,000 53 354 0
2020-01-23 23:04:11 GMT 50.726440 11.719443 15,000 53 354 0
2020-01-23 23:04:05 GMT 50.721642 11.708984 15,000 53 354 0
2020-01-23 23:03:59 GMT 50.715450 11.695786 15,000 54 354 0
2020-01-23 23:03:55 GMT 50.711517 11.687003 15,000 54 354 -64
2020-01-23 23:03:52 GMT 50.708935 11.681519 15,000 54 354 0
2020-01-23 23:03:49 GMT 50.705490 11.673965 15,000 54 354 0
2020-01-23 23:03:46 GMT 50.702591 11.667777 15,000 54 354 0
2020-01-23 23:03:43 GMT 50.699478 11.661097 15,000 54 354 64
2020-01-23 23:03:38 GMT 50.691616 11.643906 15,000 54 354 64
2020-01-23 23:03:34 GMT 50.691616 11.643906 15,000 53 355 0
2020-01-23 23:03:31 GMT 50.688869 11.638107 15,000 53 355 0
2020-01-23 23:03:28 GMT 50.685928 11.631775 15,000 53 355 0
2020-01-23 23:03:25 GMT 50.682861 11.625020 15,000 53 355 0
2020-01-23 23:03:22 GMT 50.680119 11.618881 15,000 53 355 0
2020-01-23 23:03:18 GMT 50.676487 11.611328 15,000 53 355 0
2020-01-23 23:03:15 GMT 50.672882 11.603418 15,000 53 355 0
2020-01-23 23:03:12 GMT 50.670502 11.598455 15,000 53 355 0
2020-01-23 23:03:09 GMT 50.666897 11.590353 15,000 53 355 0
2020-01-23 23:03:05 GMT 50.663635 11.583348 15,000 53 355 0
2020-01-23 23:03:02 GMT 50.656750 11.568752 15,000 53 354 0
2020-01-23 23:02:58 GMT 50.656750 11.568752 15,000 53 354 0
2020-01-23 23:02:54 GMT 50.652653 11.559621 15,000 53 354 0
2020-01-23 23:02:48 GMT 50.646786 11.547150 15,000 53 353 0
2020-01-23 23:02:44 GMT 50.643860 11.540921 15,000 53 353 0
2020-01-23 23:02:41 GMT 50.640968 11.534605 15,000 53 353 0
2020-01-23 23:02:37 GMT 50.636826 11.525475 15,000 53 352 0
2020-01-23 23:02:33 GMT 50.632736 11.516708 15,000 53 352 0
2020-01-23 23:02:30 GMT 50.630127 11.511070 15,000 53 352 0
2020-01-23 23:02:27 GMT 50.624489 11.499048 15,000 53 352 0
2020-01-23 23:02:24 GMT 50.621567 11.492711 15,000 53 352 0
2020-01-23 23:02:21 GMT 50.621567 11.492711 15,000 53 352 0
2020-01-23 23:02:17 GMT 50.617767 11.484471 15,000 53 352 0
2020-01-23 23:02:14 GMT 50.612106 11.472473 15,000 53 353 0
2020-01-23 23:02:07 GMT 50.607651 11.463005 15,000 53 354 0
2020-01-23 23:02:04 GMT 50.605263 11.457478 15,000 53 354 0
2020-01-23 23:02:01 GMT 50.602516 11.451688 15,000 53 354 0
2020-01-23 23:01:56 GMT 50.597351 11.440526 15,000 53 354 0
2020-01-23 23:01:53 GMT 50.591171 11.427299 15,000 53 354 0
2020-01-23 23:01:50 GMT 50.591171 11.427299 15,000 53 354 0
2020-01-23 23:01:47 GMT 50.588425 11.421445 15,000 53 354 0
2020-01-23 23:01:44 GMT 50.585358 11.414795 15,000 53 354 0
2020-01-23 23:01:41 GMT 50.582775 11.409450 15,000 53 354 -64
2020-01-23 23:01:37 GMT 50.574677 11.391931 15,000 53 354 0
2020-01-23 23:01:33 GMT 50.574677 11.391931 15,000 53 354 64
2020-01-23 23:01:30 GMT 50.571930 11.386067 15,000 53 354 0
2020-01-23 23:01:27 GMT 50.569016 11.379957 15,000 53 354 0
2020-01-23 23:01:24 GMT 50.566113 11.373745 15,000 53 354 0
2020-01-23 23:01:20 GMT 50.563038 11.367064 15,000 53 354 0
2020-01-23 23:01:17 GMT 50.559082 11.358824 15,000 53 354 0
2020-01-23 23:01:14 GMT 50.556847 11.353850 15,000 53 354 0
2020-01-23 23:01:11 GMT 50.552216 11.344251 15,000 53 354 0
2020-01-23 23:01:06 GMT 50.548782 11.336662 15,000 53 354 64
2020-01-23 23:01:02 GMT 50.544651 11.328092 15,000 53 354 -64
2020-01-23 23:00:59 GMT 50.542603 11.323435 15,000 53 354 -64
2020-01-23 23:00:55 GMT 50.537109 11.311798 15,000 53 354 0
2020-01-23 23:00:52 GMT 50.534866 11.306955 15,000 53 354 0
2020-01-23 23:00:48 GMT 50.531940 11.300626 15,000 53 354 64
2020-01-23 23:00:44 GMT 50.527496 11.291199 15,000 53 354 64
2020-01-23 23:00:38 GMT 50.522167 11.279990 15,000 53 354 64
2020-01-23 23:00:35 GMT 50.519257 11.273852 15,000 53 354 0
2020-01-23 23:00:32 GMT 50.516144 11.267130 15,000 53 354 0
2020-01-23 23:00:29 GMT 50.512901 11.260096 15,000 53 354 0
2020-01-23 23:00:26 GMT 50.509644 11.253036 15,000 53 354 0
2020-01-23 23:00:23 GMT 50.507217 11.248121 15,000 53 354 -64
2020-01-23 23:00:19 GMT 50.503265 11.239533 15,000 53 354 -64
2020-01-23 23:00:16 GMT 50.500351 11.233159 15,000 53 354 0
2020-01-23 23:00:13 GMT 50.497284 11.226654 15,000 53 354 0
2020-01-23 23:00:10 GMT 50.494171 11.219932 15,000 53 354 64
2020-01-23 23:00:06 GMT 50.487858 11.206352 15,000 53 354 64
2020-01-23 23:00:03 GMT 50.483528 11.197295 15,000 53 354 0
2020-01-23 22:59:59 GMT 50.483528 11.197295 15,000 53 353 0
2020-01-23 22:59:56 GMT 50.480621 11.191093 15,000 53 353 0
2020-01-23 22:59:53 GMT 50.477875 11.185238 15,000 53 353 0
2020-01-23 22:59:50 GMT 50.475800 11.180816 15,000 53 354 0
2020-01-23 22:59:47 GMT 50.472885 11.174469 15,000 53 354 0
2020-01-23 22:59:44 GMT 50.469818 11.167892 15,000 53 354 0
2020-01-23 22:59:41 GMT 50.465881 11.159652 15,000 53 354 0
2020-01-23 22:59:38 GMT 50.463638 11.154737 15,000 53 354 64
2020-01-23 22:59:35 GMT 50.460205 11.147634 15,000 53 354 -64
2020-01-23 22:59:31 GMT 50.455902 11.138041 15,000 53 353 -64
2020-01-23 22:59:24 GMT 50.447170 11.119500 15,000 53 354 64
2020-01-23 22:59:21 GMT 50.447170 11.119500 15,000 53 354 64
2020-01-23 22:59:18 GMT 50.444229 11.113321 15,000 53 354 64
2020-01-23 22:59:14 GMT 50.440468 11.105470 15,000 53 354 64
2020-01-23 22:59:11 GMT 50.437023 11.098047 15,000 53 354 0
2020-01-23 22:59:08 GMT 50.434277 11.092406 15,000 53 354 0
2020-01-23 22:59:03 GMT 50.429668 11.082458 15,000 53 354 -64
2020-01-23 22:59:00 GMT 50.426922 11.076594 15,000 53 353 0
2020-01-23 22:58:57 GMT 50.424316 11.071255 15,000 53 354 -64
2020-01-23 22:58:54 GMT 50.420731 11.063381 15,000 53 354 -64
2020-01-23 22:58:51 GMT 50.417816 11.057378 15,000 53 354 0
2020-01-23 22:58:47 GMT 50.414536 11.050316 15,000 53 353 0
2020-01-23 22:58:44 GMT 50.410580 11.042076 15,000 53 353 0
2020-01-23 22:58:41 GMT 50.408344 11.037103 15,000 53 353 0
2020-01-23 22:58:38 GMT 50.404762 11.029754 15,000 53 353 0
2020-01-23 22:58:33 GMT 50.400478 11.020623 15,000 53 352 0
2020-01-23 22:58:30 GMT 50.398041 11.015312 15,000 54 353 64
2020-01-23 22:58:27 GMT 50.394974 11.008807 15,000 53 353 0
2020-01-23 22:58:23 GMT 50.387238 10.992327 15,000 53 353 0
2020-01-23 22:58:20 GMT 50.387238 10.992327 15,000 53 353 0
2020-01-23 22:58:17 GMT 50.384857 10.987340 15,000 53 353 0
2020-01-23 22:58:13 GMT 50.377991 10.972378 15,000 53 354 -64
2020-01-23 22:58:06 GMT 50.375061 10.966211 15,000 53 354 -64
2020-01-23 22:58:03 GMT 50.371990 10.959679 15,000 54 353 0
2020-01-23 22:58:00 GMT 50.368546 10.952107 15,000 54 353 0
2020-01-23 22:57:57 GMT 50.365795 10.946466 15,000 54 353 0
2020-01-23 22:57:53 GMT 50.359085 10.932047 15,000 54 353 64
2020-01-23 22:57:50 GMT 50.356159 10.925681 15,000 54 353 0
2020-01-23 22:57:47 GMT 50.356159 10.925681 15,000 54 353 0
2020-01-23 22:57:42 GMT 50.351532 10.915423 15,000 54 353 0
2020-01-23 22:57:39 GMT 50.348293 10.908385 15,000 54 353 0
2020-01-23 22:57:36 GMT 50.345875 10.903411 15,000 54 353 -64
2020-01-23 22:57:32 GMT 50.341778 10.894281 15,000 54 353 -64
2020-01-23 22:57:29 GMT 50.338852 10.888102 15,000 54 353 -64
2020-01-23 22:57:26 GMT 50.336105 10.882464 15,000 54 353 -64
2020-01-23 22:57:22 GMT 50.331116 10.871622 15,000 51 354 64
2020-01-23 22:57:19 GMT 50.326813 10.862515 15,000 53 354 64
2020-01-23 22:57:12 GMT 50.321320 10.851240 15,000 50 354 64
2020-01-23 22:57:09 GMT 50.318920 10.846921 15,000 49 354 64
2020-01-23 22:57:06 GMT 50.316696 10.842639 15,000 48 354 0
2020-01-23 22:57:02 GMT 50.310493 10.832520 15,000 45 354 0
2020-01-23 22:56:56 GMT 50.304859 10.823909 15,000 43 355 64
2020-01-23 22:56:52 GMT 50.300018 10.816857 15,000 43 355 -64
2020-01-23 22:56:49 GMT 50.296600 10.811559 15,000 43 355 -64
2020-01-23 22:56:46 GMT 50.292664 10.806066 15,000 43 355 -64
2020-01-23 22:56:41 GMT 50.286285 10.796443 15,000 43 355 0
2020-01-23 22:56:38 GMT 50.282887 10.791469 15,000 43 355 0
2020-01-23 22:56:35 GMT 50.274277 10.778924 15,000 43 355 64
2020-01-23 22:56:31 GMT 50.274277 10.778924 15,000 43 355 64
2020-01-23 22:56:25 GMT 50.268265 10.769999 15,000 43 355 64
2020-01-23 22:56:22 GMT 50.263660 10.763484 15,000 43 355 -64
2020-01-23 22:56:19 GMT 50.259201 10.756772 15,000 43 355 -64
2020-01-23 22:56:15 GMT 50.256271 10.752507 15,000 43 355 -64
2020-01-23 22:56:12 GMT 50.248032 10.740654 15,000 42 355 0
2020-01-23 22:56:09 GMT 50.243923 10.734830 15,000 42 355 64
2020-01-23 22:56:06 GMT 50.243923 10.734830 15,000 42 355 64
2020-01-23 22:56:01 GMT 50.239082 10.727778 15,000 42 355 64
2020-01-23 22:55:58 GMT 50.235489 10.722656 15,000 42 355 64
2020-01-23 22:55:55 GMT 50.225719 10.708404 15,000 42 355 0
2020-01-23 22:55:51 GMT 50.225719 10.708404 15,000 42 355 0
2020-01-23 22:55:48 GMT 50.223114 10.704766 14,975 42 355 0
2020-01-23 22:55:45 GMT 50.219513 10.699599 15,000 42 355 -64
2020-01-23 22:55:41 GMT 50.214203 10.692082 15,000 42 355 -64
2020-01-23 22:55:38 GMT 50.209568 10.685392 15,000 42 355 0
2020-01-23 22:55:35 GMT 50.207520 10.682325 15,000 42 355 0
2020-01-23 22:55:31 GMT 50.202209 10.674736 15,025 44 364 0
2020-01-23 22:55:28 GMT 50.198395 10.669580 15,000 42 356 0
2020-01-23 22:55:25 GMT 50.194794 10.664472 15,000 42 356 0
2020-01-23 22:55:22 GMT 50.191360 10.659629 15,000 42 356 0
2020-01-23 22:55:18 GMT 50.186756 10.652952 15,000 42 356 0
2020-01-23 22:55:15 GMT 50.182472 10.646791 15,000 42 356 -64
2020-01-23 22:55:12 GMT 50.174377 10.635272 15,000 42 358 -128
2020-01-23 22:55:08 GMT 50.174377 10.635272 15,025 42 358 -128
2020-01-23 22:55:05 GMT 50.169571 10.628188 15,025 42 358 -128
2020-01-23 22:55:02 GMT 50.166832 10.624299 15,025 43 360 -64
2020-01-23 22:54:58 GMT 50.159103 10.612941 15,025 43 362 0
2020-01-23 22:54:52 GMT 50.154823 10.606409 15,025 43 364 0
2020-01-23 22:54:48 GMT 50.150711 10.600072 15,000 44 367 0
2020-01-23 22:54:45 GMT 50.145721 10.592700 15,000 44 370 0
2020-01-23 22:54:40 GMT 50.139553 10.583397 15,000 43 377 128
2020-01-23 22:54:37 GMT 50.136948 10.579611 15,000 43 377 128
2020-01-23 22:54:34 GMT 50.133179 10.573979 15,000 43 379 128
2020-01-23 22:54:30 GMT 50.127357 10.565210 14,975 43 386 0
2020-01-23 22:54:27 GMT 50.124237 10.560756 14,975 43 388 -64
2020-01-23 22:54:24 GMT 50.119812 10.554247 14,975 42 390 0
2020-01-23 22:54:21 GMT 50.116371 10.549250 15,000 42 390 0
2020-01-23 22:54:18 GMT 50.111710 10.542755 15,000 42 390 0
2020-01-23 22:54:15 GMT 50.108139 10.537407 15,000 43 391 0
2020-01-23 22:54:12 GMT 50.103149 10.530024 15,000 43 391 0
2020-01-23 22:54:09 GMT 50.095917 10.519554 15,000 43 391 -64
2020-01-23 22:54:06 GMT 50.095917 10.519554 15,000 43 391 -64
2020-01-23 22:54:03 GMT 50.091660 10.513410 15,000 43 392 64
2020-01-23 22:53:59 GMT 50.086159 10.505305 15,000 43 393 0
2020-01-23 22:53:56 GMT 50.082184 10.499460 15,000 43 393 0
2020-01-23 22:53:53 GMT 50.077927 10.493317 15,000 43 393 -128
2020-01-23 22:53:49 GMT 50.069679 10.481254 15,025 43 394 0
2020-01-23 22:53:43 GMT 50.065201 10.474741 15,025 43 394 0
2020-01-23 22:53:40 GMT 50.061764 10.469600 15,025 43 393 64
2020-01-23 22:53:37 GMT 50.052174 10.455718 15,025 43 394 0
2020-01-23 22:53:34 GMT 50.052174 10.455718 15,025 43 393 -64
2020-01-23 22:53:31 GMT 50.049568 10.451932 15,025 43 393 -64
2020-01-23 22:53:27 GMT 50.043915 10.443878 15,025 43 392 -64
2020-01-23 22:53:24 GMT 50.039795 10.437518 15,025 43 393 0
2020-01-23 22:53:21 GMT 50.036346 10.432558 15,025 43 392 0
2020-01-23 22:53:17 GMT 50.030529 10.424095 15,025 43 393 64
2020-01-23 22:53:13 GMT 50.026062 10.417424 15,025 43 393 -64
2020-01-23 22:53:10 GMT 50.022472 10.412441 15,025 43 393 0
2020-01-23 22:53:07 GMT 50.011490 10.396110 15,025 43 393 -64
2020-01-23 22:53:03 GMT 50.011490 10.396110 15,025 42 394 0
2020-01-23 22:52:58 GMT 50.006134 10.388390 15,025 43 393 -64
2020-01-23 22:52:55 GMT 50.001709 10.381863 15,025 43 393 -64
2020-01-23 22:52:52 GMT 49.993473 10.369832 15,000 43 393 0
2020-01-23 22:52:49 GMT 49.989853 10.364878 15,025 42 393 64
2020-01-23 22:52:46 GMT 49.989853 10.364878 15,025 42 393 64
2020-01-23 22:52:43 GMT 49.985886 10.359217 15,025 42 393 64
2020-01-23 22:52:40 GMT 49.980423 10.351145 15,000 42 394 64
2020-01-23 22:52:36 GMT 49.976624 10.345869 15,000 42 393 64
2020-01-23 22:52:33 GMT 49.972321 10.339653 15,000 42 392 0
2020-01-23 22:52:30 GMT 49.969070 10.335027 15,025 42 392 64
2020-01-23 22:52:26 GMT 49.961517 10.324185 15,000 42 393 0
2020-01-23 22:52:23 GMT 49.958607 10.320096 15,000 42 393 0
2020-01-23 22:52:20 GMT 49.955021 10.314752 15,000 42 392 64
2020-01-23 22:52:16 GMT 49.945385 10.301019 15,000 42 392 64
2020-01-23 22:52:13 GMT 49.945385 10.301019 15,000 41 390 -448
2020-01-23 22:52:10 GMT 49.941612 10.295674 15,000 42 392 0
2020-01-23 22:52:07 GMT 49.938171 10.290937 15,000 42 391 -192
2020-01-23 22:52:04 GMT 49.933559 10.284391 15,000 41 391 -256
2020-01-23 22:52:01 GMT 49.928207 10.276968 15,025 41 390 -320
2020-01-23 22:51:57 GMT 49.920319 10.266001 15,050 41 390 -448
2020-01-23 22:51:51 GMT 49.916893 10.261230 15,125 41 391 -640
2020-01-23 22:51:48 GMT 49.911758 10.254147 15,125 41 392 -704
2020-01-23 22:51:45 GMT 49.908142 10.249205 15,150 41 392 -768
2020-01-23 22:51:42 GMT 49.903858 10.243192 15,200 41 392 -896
2020-01-23 22:51:39 GMT 49.900600 10.238738 15,250 43 396 -1088
2020-01-23 22:51:36 GMT 49.895760 10.231835 15,300 42 394 -960
2020-01-23 22:51:33 GMT 49.891987 10.226564 15,325 42 392 -960
2020-01-23 22:51:30 GMT 49.883743 10.214683 15,550 42 399 -1280
2020-01-23 22:51:27 GMT 49.883743 10.214683 15,450 43 395 -960
2020-01-23 22:51:24 GMT 49.879467 10.208526 15,450 43 395 -1024
2020-01-23 22:51:21 GMT 49.876022 10.203552 15,550 43 399 -1344
2020-01-23 22:51:17 GMT 49.870014 10.194941 15,650 43 401 -1472
2020-01-23 22:51:14 GMT 49.866245 10.189448 15,725 42 401 -1408
2020-01-23 22:51:10 GMT 49.853722 10.171261 15,900 42 426 -3584
2020-01-23 22:51:05 GMT 49.853722 10.171261 15,875 43 406 -896
2020-01-23 22:51:02 GMT 49.848907 10.164377 16,000 43 411 -256
2020-01-23 22:50:59 GMT 49.841721 10.153897 16,325 43 425 -3520
2020-01-23 22:50:53 GMT 49.838081 10.148398 15,950 43 418 -1024
2020-01-23 22:50:50 GMT 49.833298 10.141537 16,125 43 424 -3392
2020-01-23 22:50:47 GMT 49.830048 10.136550 16,200 43 420 -2880
2020-01-23 22:50:44 GMT 49.824875 10.129033 16,425 43 422 -3136
2020-01-23 22:50:41 GMT 49.820435 10.122311 17,025 43 426 -3520
2020-01-23 22:50:37 GMT 49.815262 10.114794 16,800 43 424 -3520
2020-01-23 22:50:34 GMT 49.809776 10.106902 17,075 42 425 -3520
2020-01-23 22:50:31 GMT 49.806015 10.101567 17,225 42 427 -3584
2020-01-23 22:50:25 GMT 49.796036 10.087473 17,600 41 429 -3712
2020-01-23 22:50:22 GMT 49.787991 10.076690 17,800 40 429 -3776
2020-01-23 22:50:19 GMT 49.787991 10.076690 17,925 39 430 -3840
2020-01-23 22:50:16 GMT 49.783661 10.071345 18,275 34 430 -3904
2020-01-23 22:50:13 GMT 49.779053 10.066372 18,350 34 430 -3840
2020-01-23 22:50:10 GMT 49.773746 10.061027 18,525 32 431 -3776
2020-01-23 22:50:06 GMT 49.766159 10.053975 18,800 29 432 -3520
2020-01-23 22:50:00 GMT 49.757080 10.046626 25,000 24 434 -3776
2020-01-23 22:49:57 GMT 49.751263 10.042320 25,000 24 434 -3840
2020-01-23 22:49:53 GMT 49.742325 10.036827 19,400 22 434 -3712
2020-01-23 22:49:50 GMT 49.737350 10.034132 19,725 19 436 -3648
2020-01-23 22:49:47 GMT 49.732681 10.031674 20,350 16 437 -3648
2020-01-23 22:49:43 GMT 49.718952 10.026064 20,225 13 439 -3776
2020-01-23 22:49:40 GMT 49.713821 10.024157 20,475 12 440 -3840
2020-01-23 22:49:34 GMT 49.705902 10.021410 20,725 12 442 -3648
2020-01-23 22:49:30 GMT 49.699913 10.019309 20,875 12 443 -3648
2020-01-23 22:49:27 GMT 49.692352 10.016568 21,100 13 444 -3840
2020-01-23 22:49:24 GMT 49.686367 10.014335 21,350 13 446 -3904
2020-01-23 22:49:18 GMT 49.673473 10.009213 21,775 15 448 -3968
2020-01-23 22:49:15 GMT 49.667141 10.006466 22,175 15 450 -3840
2020-01-23 22:49:12 GMT 49.662827 10.004570 22,175 15 450 -3840
2020-01-23 22:49:09 GMT 49.657505 10.002161 22,275 15 452 -3904
2020-01-23 22:49:06 GMT 49.650650 9.999221 22,450 16 452 -3968
2020-01-23 22:49:03 GMT 49.638977 9.993550 22,825 18 456 -3712
2020-01-23 22:48:57 GMT 49.626801 9.986355 23,175 22 460 -3968
2020-01-23 22:48:51 GMT 49.615265 9.977827 23,525 27 462 -4288
2020-01-23 22:48:48 GMT 49.608582 9.971972 24,000 34 470 -2944
2020-01-23 22:48:42 GMT 49.599838 9.963226 24,200 34 470 -3008
2020-01-23 22:48:36 GMT 49.593822 9.956657 24,600 34 473 -2112
2020-01-23 22:48:33 GMT 49.587662 9.950144 24,875 40 479 -704
2020-01-23 22:48:29 GMT 49.580788 9.942924 24,525 33 474 -1792
2020-01-23 22:48:26 GMT 49.568916 9.931121 24,700 32 475 -2240
2020-01-23 22:48:20 GMT 49.564316 9.926147 24,775 36 477 -1792
2020-01-23 22:48:17 GMT 49.560196 9.921160 24,925 39 478 -832
2020-01-23 22:48:14 GMT 49.554344 9.913751 24,950 40 479 -704
2020-01-23 22:48:11 GMT 49.548523 9.906199 25,000 40 479 0
2020-01-23 22:48:08 GMT 49.542149 9.897939 25,000 40 479 0
2020-01-23 22:48:05 GMT 49.538361 9.893188 25,000 40 479 0
2020-01-23 22:48:02 GMT 49.528244 9.880106 25,000 40 479 0
2020-01-23 22:47:59 GMT 49.528244 9.880106 24,975 39 481 0
2020-01-23 22:47:56 GMT 49.523438 9.873962 25,000 39 479 0
2020-01-23 22:47:53 GMT 49.517258 9.866012 24,975 39 479 0
2020-01-23 22:47:49 GMT 49.511948 9.859001 24,975 39 479 0
2020-01-23 22:47:46 GMT 49.507465 9.853326 24,975 39 480 0
2020-01-23 22:47:43 GMT 49.500626 9.844567 24,975 39 480 64
2020-01-23 22:47:40 GMT 49.491531 9.832764 24,975 39 481 0
2020-01-23 22:47:37 GMT 49.491531 9.832764 24,975 39 480 0
2020-01-23 22:47:34 GMT 49.483978 9.823151 24,975 40 480 0
2020-01-23 22:47:31 GMT 49.479172 9.817152 24,975 39 481 0
2020-01-23 22:47:28 GMT 49.469387 9.804407 24,975 40 480 0
2020-01-23 22:47:25 GMT 49.469387 9.804407 24,975 40 480 0
2020-01-23 22:47:22 GMT 49.464203 9.797709 24,975 40 480 0
2020-01-23 22:47:18 GMT 49.458710 9.790698 24,975 40 480 0
2020-01-23 22:47:15 GMT 49.454590 9.785566 24,975 40 480 0
2020-01-23 22:47:12 GMT 49.447906 9.776748 24,975 39 479 0
2020-01-23 22:47:09 GMT 49.443100 9.770604 24,975 39 479 0
2020-01-23 22:47:06 GMT 49.437965 9.764099 24,975 39 479 0
2020-01-23 22:47:03 GMT 49.432297 9.756727 24,975 39 479 0
2020-01-23 22:47:00 GMT 49.428513 9.751851 24,975 39 479 0
2020-01-23 22:46:57 GMT 49.422684 9.744521 25,000 39 479 -64
2020-01-23 22:46:54 GMT 49.412567 9.731281 25,000 40 479 0
2020-01-23 22:46:48 GMT 49.408077 9.725647 25,000 40 479 0
2020-01-23 22:46:45 GMT 49.395229 9.709167 25,000 40 479 0
2020-01-23 22:46:38 GMT 49.390388 9.702952 25,000 39 479 0
2020-01-23 22:46:35 GMT 49.385593 9.696952 25,000 39 479 0
2020-01-23 22:46:32 GMT 49.378555 9.687829 25,000 39 479 0
2020-01-23 22:46:29 GMT 49.374435 9.682547 25,000 39 480 0
2020-01-23 22:46:26 GMT 49.369629 9.676561 25,000 39 480 0
2020-01-23 22:46:22 GMT 49.357803 9.661247 25,000 39 480 0
2020-01-23 22:46:19 GMT 49.357803 9.661247 25,000 39 480 0
2020-01-23 22:46:16 GMT 49.353008 9.655248 25,000 39 480 0
2020-01-23 22:46:13 GMT 49.346813 9.647369 25,000 39 480 0
2020-01-23 22:46:10 GMT 49.343369 9.643033 24,975 39 480 -64
2020-01-23 22:46:07 GMT 49.337540 9.635644 25,000 39 480 64
2020-01-23 22:46:04 GMT 49.332733 9.629517 25,000 39 480 64
2020-01-23 22:46:01 GMT 49.327076 9.622144 24,975 39 480 64
2020-01-23 22:45:58 GMT 49.322235 9.615928 24,975 39 480 0
2020-01-23 22:45:55 GMT 49.316090 9.608194 24,975 39 480 0
2020-01-23 22:45:52 GMT 49.312317 9.603389 24,975 39 480 0
2020-01-23 22:45:49 GMT 49.306454 9.596052 24,975 39 480 -64
2020-01-23 22:45:46 GMT 49.301846 9.589836 24,975 39 480 -64
2020-01-23 22:45:43 GMT 49.292542 9.578177 25,000 39 479 -64
2020-01-23 22:45:37 GMT 49.278992 9.560852 25,000 39 480 0
2020-01-23 22:45:33 GMT 49.278992 9.560852 24,975 39 480 0
2020-01-23 22:45:30 GMT 49.274521 9.555142 25,000 39 480 0
2020-01-23 22:45:27 GMT 49.270065 9.549514 24,975 39 480 0
2020-01-23 22:45:21 GMT 49.258926 9.535265 24,975 39 480 0
2020-01-23 22:45:18 GMT 49.253769 9.528738 24,975 39 480 0
2020-01-23 22:45:15 GMT 49.249287 9.523050 24,975 39 480 0
2020-01-23 22:45:12 GMT 49.242447 9.514449 24,975 39 480 -64
2020-01-23 22:45:08 GMT 49.232483 9.501977 25,000 39 480 -64
2020-01-23 22:45:05 GMT 49.226486 9.494019 25,000 39 480 -64
2020-01-23 22:45:02 GMT 49.226486 9.494019 25,000 39 480 0
2020-01-23 22:44:59 GMT 49.223053 9.489793 25,000 39 480 0
2020-01-23 22:44:56 GMT 49.217213 9.482358 25,000 39 480 64
2020-01-23 22:44:53 GMT 49.211021 9.474624 25,000 39 480 64
2020-01-23 22:44:50 GMT 49.200035 9.460746 25,000 39 480 0
2020-01-23 22:44:47 GMT 49.200035 9.460746 25,000 39 480 0
2020-01-23 22:44:43 GMT 49.195587 9.455073 24,975 39 480 0
2020-01-23 22:44:40 GMT 49.189236 9.447013 25,000 39 480 0
2020-01-23 22:44:37 GMT 49.178902 9.434003 25,000 39 480 0
2020-01-23 22:44:34 GMT 49.178902 9.434003 25,000 39 480 0
2020-01-23 22:44:31 GMT 49.174107 9.427932 25,000 39 480 0
2020-01-23 22:44:28 GMT 49.167915 9.420054 25,000 39 480 0
2020-01-23 22:44:25 GMT 49.156586 9.405846 25,000 39 480 0
2020-01-23 22:44:22 GMT 49.156586 9.405846 25,000 39 480 0
2020-01-23 22:44:19 GMT 49.153530 9.401839 25,000 39 480 0
2020-01-23 22:44:16 GMT 49.148037 9.394973 24,975 39 481 0
2020-01-23 22:44:12 GMT 49.139938 9.384565 25,000 39 481 0
2020-01-23 22:44:06 GMT 49.131046 9.373362 25,000 39 481 0
2020-01-23 22:44:03 GMT 49.124157 9.364616 25,000 39 481 0
2020-01-23 22:44:00 GMT 49.120712 9.360352 25,000 39 481 0
2020-01-23 22:43:57 GMT 49.115219 9.353485 25,000 39 481 0
2020-01-23 22:43:54 GMT 49.110424 9.347486 25,000 39 481 0
2020-01-23 22:43:51 GMT 49.104233 9.339535 25,000 39 481 0
2020-01-23 22:43:48 GMT 49.095657 9.328731 24,975 39 481 0
2020-01-23 22:43:45 GMT 49.095657 9.328731 24,975 39 482 0
2020-01-23 22:43:42 GMT 49.088791 9.320139 24,975 39 482 0
2020-01-23 22:43:39 GMT 49.085705 9.316189 24,975 39 482 64
2020-01-23 22:43:36 GMT 49.079178 9.308167 24,975 39 481 0
2020-01-23 22:43:33 GMT 49.074718 9.302457 24,975 39 482 0
2020-01-23 22:43:30 GMT 49.069923 9.296457 24,975 39 482 0
2020-01-23 22:43:27 GMT 49.057709 9.281335 25,000 39 482 0
2020-01-23 22:43:24 GMT 49.057709 9.281335 25,000 39 482 0
2020-01-23 22:43:20 GMT 49.051907 9.273979 24,975 39 481 0
2020-01-23 22:43:17 GMT 49.046036 9.266756 24,975 39 481 64
2020-01-23 22:43:13 GMT 49.040543 9.259925 24,975 39 481 0
2020-01-23 22:43:10 GMT 49.033676 9.251333 24,975 39 481 0
2020-01-23 22:43:06 GMT 49.027496 9.243587 24,975 39 481 0
2020-01-23 22:43:03 GMT 49.022690 9.237600 24,975 39 481 0
2020-01-23 22:43:00 GMT 49.016853 9.230178 24,975 39 481 0
2020-01-23 22:42:57 GMT 49.012756 9.225046 24,975 39 481 0
2020-01-23 22:42:54 GMT 49.003464 9.213374 24,975 39 480 0
2020-01-23 22:42:48 GMT 48.996597 9.204782 24,975 39 480 0
2020-01-23 22:42:45 GMT 48.991482 9.198448 24,975 39 480 0
2020-01-23 22:42:42 GMT 48.985291 9.190714 24,975 39 479 0
2020-01-23 22:42:38 GMT 48.974625 9.177528 25,000 39 479 0
2020-01-23 22:42:32 GMT 48.965195 9.165485 24,975 39 479 0
2020-01-23 22:42:25 GMT 48.956268 9.154358 24,975 39 478 0
2020-01-23 22:42:22 GMT 48.947678 9.143661 25,000 39 478 -64
2020-01-23 22:42:19 GMT 48.947678 9.143661 24,975 39 478 -64
2020-01-23 22:42:16 GMT 48.941849 9.136329 25,000 39 478 -64
2020-01-23 22:42:13 GMT 48.931732 9.123582 25,000 39 478 0
2020-01-23 22:42:10 GMT 48.927937 9.118797 25,000 39 478 0
2020-01-23 22:42:04 GMT 48.917313 9.105553 25,000 39 478 0
2020-01-23 22:42:01 GMT 48.917313 9.105553 25,000 39 478 0
2020-01-23 22:41:58 GMT 48.910622 9.097186 25,000 39 477 0
2020-01-23 22:41:55 GMT 48.906151 9.091692 25,000 39 478 0
2020-01-23 22:41:52 GMT 48.901703 9.086045 24,975 39 478 0
2020-01-23 22:41:49 GMT 48.895863 9.078827 24,975 39 478 0
2020-01-23 22:41:46 GMT 48.891022 9.072972 24,975 39 478 0
2020-01-23 22:41:42 GMT 48.884876 9.065239 24,975 39 479 0
2020-01-23 22:41:39 GMT 48.873890 9.051650 24,975 39 477 -64
2020-01-23 22:41:36 GMT 48.867371 9.043579 25,000 39 478 -64
2020-01-23 22:41:30 GMT 48.863251 9.038649 25,000 38 478 0
2020-01-23 22:41:27 GMT 48.852570 9.025558 25,000 38 478 0
2020-01-23 22:41:24 GMT 48.852570 9.025558 25,000 38 478 0
2020-01-23 22:41:21 GMT 48.840233 9.010307 25,000 39 479 64
2020-01-23 22:41:17 GMT 48.840233 9.010307 25,000 39 479 64
2020-01-23 22:41:14 GMT 48.836472 9.005690 24,975 39 479 64
2020-01-23 22:41:11 GMT 48.832352 9.000549 24,975 39 479 0
2020-01-23 22:41:08 GMT 48.826172 8.992943 24,975 39 479 0
2020-01-23 22:41:05 GMT 48.820679 8.986253 24,975 39 479 -64
2020-01-23 22:41:02 GMT 48.815514 8.979950 24,975 39 479 0
2020-01-23 22:40:59 GMT 48.810020 8.973083 25,000 39 479 0
2020-01-23 22:40:56 GMT 48.805225 8.967229 25,000 39 479 0
2020-01-23 22:40:53 GMT 48.801083 8.962097 25,000 39 479 0
2020-01-23 22:40:50 GMT 48.794891 8.954508 25,000 39 478 0
2020-01-23 22:40:47 GMT 48.790794 8.949521 24,975 39 478 64
2020-01-23 22:40:44 GMT 48.784603 8.941787 25,000 39 476 0
2020-01-23 22:40:41 GMT 48.779480 8.935476 24,975 39 478 64
2020-01-23 22:40:38 GMT 48.766434 8.919490 24,975 39 478 64
2020-01-23 22:40:34 GMT 48.766434 8.919490 24,975 39 477 0
2020-01-23 22:40:31 GMT 48.762630 8.914899 24,975 39 477 -128
2020-01-23 22:40:28 GMT 48.757507 8.908504 24,975 39 477 -128
2020-01-23 22:40:25 GMT 48.751644 8.901311 24,975 39 477 -128
2020-01-23 22:40:21 GMT 48.744942 8.892927 25,000 39 476 64
2020-01-23 22:40:17 GMT 48.738796 8.885337 25,000 39 476 64
2020-01-23 22:40:13 GMT 48.732239 8.877305 25,000 39 476 64
2020-01-23 22:40:10 GMT 48.726746 8.870544 24,975 39 476 64
2020-01-23 22:40:07 GMT 48.721619 8.864377 24,975 38 477 64
2020-01-23 22:40:04 GMT 48.717133 8.858924 24,975 38 477 0
2020-01-23 22:40:01 GMT 48.706146 8.845332 24,975 39 477 0
2020-01-23 22:39:58 GMT 48.699646 8.837417 24,975 39 477 -64
2020-01-23 22:39:55 GMT 48.692757 8.829032 24,975 39 477 0
2020-01-23 22:39:51 GMT 48.692757 8.829032 25,000 39 477 0
2020-01-23 22:39:48 GMT 48.686920 8.821810 25,000 39 477 64
2020-01-23 22:39:45 GMT 48.684174 8.818571 25,000 39 477 64
2020-01-23 22:39:42 GMT 48.678371 8.811324 24,975 39 477 64
2020-01-23 22:39:39 GMT 48.673717 8.805542 24,975 39 477 64
2020-01-23 22:39:36 GMT 48.668564 8.799133 24,975 39 476 64
2020-01-23 22:39:33 GMT 48.662384 8.791598 24,975 39 476 0
2020-01-23 22:39:30 GMT 48.657578 8.785753 24,975 39 477 -64
2020-01-23 22:39:26 GMT 48.651398 8.778217 24,975 39 477 0
2020-01-23 22:39:23 GMT 48.645905 8.771386 25,000 39 481 64
2020-01-23 22:39:20 GMT 48.640060 8.764343 25,000 39 477 -64
2020-01-23 22:39:17 GMT 48.635265 8.758489 25,000 39 477 0
2020-01-23 22:39:14 GMT 48.630112 8.752160 25,000 39 477 -64
2020-01-23 22:39:11 GMT 48.625305 8.746314 25,000 39 477 -64
2020-01-23 22:39:08 GMT 48.615005 8.733567 25,000 39 477 0
2020-01-23 22:39:02 GMT 48.605392 8.721947 25,000 38 478 0
2020-01-23 22:38:56 GMT 48.599899 8.715257 25,000 38 479 0
2020-01-23 22:38:53 GMT 48.592716 8.706448 24,975 38 480 0
2020-01-23 22:38:50 GMT 48.588573 8.701316 24,975 38 480 0
2020-01-23 22:38:47 GMT 48.583923 8.695820 24,975 38 480 64
2020-01-23 22:38:44 GMT 48.574654 8.684476 24,975 39 481 0
2020-01-23 22:38:38 GMT 48.568817 8.677298 25,000 39 481 0
2020-01-23 22:38:35 GMT 48.563667 8.670959 24,975 39 481 0
2020-01-23 22:38:32 GMT 48.557693 8.663706 24,975 39 481 0
2020-01-23 22:38:29 GMT 48.552540 8.657371 25,000 39 481 -64
2020-01-23 22:38:25 GMT 48.546021 8.649480 25,000 39 481 -64
2020-01-23 22:38:22 GMT 48.535873 8.637133 25,000 38 482 -64
2020-01-23 22:38:19 GMT 48.535873 8.637133 25,000 38 482 0
2020-01-23 22:38:16 GMT 48.531078 8.631279 25,000 38 482 0
2020-01-23 22:38:13 GMT 48.525238 8.624056 25,000 38 482 64
2020-01-23 22:38:10 GMT 48.519211 8.617040 24,975 38 482 64
2020-01-23 22:38:06 GMT 48.512367 8.608439 24,975 38 482 0
2020-01-23 22:38:02 GMT 48.505989 8.600922 24,975 38 482 0
2020-01-23 22:37:59 GMT 48.501892 8.595934 24,975 38 482 0
2020-01-23 22:37:56 GMT 48.496719 8.589548 25,000 38 482 0
2020-01-23 22:37:53 GMT 48.489716 8.581167 24,975 38 482 0
2020-01-23 22:37:48 GMT 48.481781 8.571360 25,000 38 482 0
2020-01-23 22:37:44 GMT 48.468933 8.555955 25,000 38 481 0
2020-01-23 22:37:41 GMT 48.468933 8.555955 24,975 38 480 0
2020-01-23 22:37:38 GMT 48.463764 8.549604 24,975 38 481 64
2020-01-23 22:37:35 GMT 48.459137 8.544053 24,975 38 481 64
2020-01-23 22:37:32 GMT 48.452641 8.536160 24,975 38 480 0
2020-01-23 22:37:28 GMT 48.442657 8.523982 24,975 38 480 0
2020-01-23 22:37:22 GMT 48.431831 8.511152 25,000 38 479 -64
2020-01-23 22:37:19 GMT 48.431831 8.511152 25,000 38 479 -64
2020-01-23 22:37:16 GMT 48.425686 8.503563 25,000 38 478 0
2020-01-23 22:37:12 GMT 48.419128 8.495671 25,000 38 478 0
2020-01-23 22:37:09 GMT 48.414513 8.490336 24,975 38 478 64
2020-01-23 22:37:06 GMT 48.408005 8.482431 24,975 38 477 64
2020-01-23 22:37:03 GMT 48.401825 8.475037 24,975 38 476 64
2020-01-23 22:37:00 GMT 48.399384 8.472121 24,975 38 476 0
2020-01-23 22:36:57 GMT 48.394588 8.466339 24,975 38 476 0
2020-01-23 22:36:54 GMT 48.386349 8.456365 24,975 38 475 0
2020-01-23 22:36:50 GMT 48.381554 8.450727 24,975 38 473 0
2020-01-23 22:36:47 GMT 48.375732 8.443627 24,975 38 472 0
2020-01-23 22:36:43 GMT 48.370056 8.436777 24,975 38 472 0
2020-01-23 22:36:40 GMT 48.364197 8.429753 24,975 38 471 64
2020-01-23 22:36:37 GMT 48.359390 8.424119 24,975 38 467 -64
2020-01-23 22:36:34 GMT 48.354584 8.418415 24,975 38 469 128
2020-01-23 22:36:31 GMT 48.348923 8.411552 24,975 38 468 0
2020-01-23 22:36:28 GMT 48.339844 8.400597 24,975 38 465 -192
2020-01-23 22:36:22 GMT 48.334675 8.394567 25,000 38 465 -192
2020-01-23 22:36:19 GMT 48.325058 8.382920 25,000 38 463 -192
2020-01-23 22:36:16 GMT 48.325058 8.382920 25,025 38 461 0
2020-01-23 22:36:13 GMT 48.319748 8.376512 25,025 38 460 0
2020-01-23 22:36:10 GMT 48.314098 8.369847 25,025 38 459 64
2020-01-23 22:36:07 GMT 48.304321 8.358342 25,000 38 458 -64
2020-01-23 22:36:04 GMT 48.298462 8.351300 25,000 38 459 -64
2020-01-23 22:36:01 GMT 48.298462 8.351300 25,000 38 459 0
2020-01-23 22:35:58 GMT 48.294342 8.346511 25,000 38 459 64
2020-01-23 22:35:55 GMT 48.289379 8.340502 25,000 38 459 128
2020-01-23 22:35:52 GMT 48.284409 8.334679 25,000 38 459 192
2020-01-23 22:35:49 GMT 48.279419 8.328649 24,975 38 458 256
2020-01-23 22:35:46 GMT 48.274113 8.322288 24,950 38 458 320
2020-01-23 22:35:43 GMT 48.264496 8.310805 24,925 38 458 320
2020-01-23 22:35:37 GMT 48.258453 8.303763 24,900 38 458 448
2020-01-23 22:35:33 GMT 48.252277 8.296196 24,875 38 457 640
2020-01-23 22:35:30 GMT 48.248882 8.292220 24,875 38 457 640
2020-01-23 22:35:27 GMT 48.243015 8.285209 24,800 38 456 832
2020-01-23 22:35:24 GMT 48.238037 8.279395 24,775 38 456 960
2020-01-23 22:35:21 GMT 48.232403 8.272705 24,725 38 456 1024
2020-01-23 22:35:18 GMT 48.227417 8.266649 24,700 38 456 1024
2020-01-23 22:35:15 GMT 48.222061 8.260522 24,650 38 455 960
2020-01-23 22:35:12 GMT 48.218811 8.256578 24,575 38 455 1024
2020-01-23 22:35:09 GMT 48.212997 8.249535 24,525 38 455 960
2020-01-23 22:35:06 GMT 48.208008 8.243649 23,800 38 449 960
2020-01-23 22:35:02 GMT 48.201645 8.236295 24,375 38 455 960
2020-01-23 22:34:59 GMT 48.196835 8.230278 24,350 38 455 960
2020-01-23 22:34:56 GMT 48.191849 8.224464 24,300 38 454 960
2020-01-23 22:34:53 GMT 48.186222 8.217918 24,275 38 454 960
2020-01-23 22:34:50 GMT 48.182262 8.213148 24,225 38 454 1024
2020-01-23 22:34:47 GMT 48.175747 8.205414 24,125 38 454 960
2020-01-23 22:34:44 GMT 48.170746 8.199533 24,100 38 454 960
2020-01-23 22:34:40 GMT 48.165089 8.192837 24,075 38 453 960
2020-01-23 22:34:37 GMT 48.161499 8.188547 24,000 38 453 960
2020-01-23 22:34:34 GMT 48.155640 8.181519 23,950 38 452 960
2020-01-23 22:34:31 GMT 48.150654 8.175659 23,900 38 451 960
2020-01-23 22:34:28 GMT 48.145844 8.170052 23,875 38 451 960
2020-01-23 22:34:25 GMT 48.136093 8.158379 23,775 38 450 960
2020-01-23 22:34:22 GMT 48.131802 8.153405 23,725 38 449 960
2020-01-23 22:34:16 GMT 48.125935 8.146362 23,650 38 449 960
2020-01-23 22:34:13 GMT 48.120987 8.140663 23,625 38 449 1024
2020-01-23 22:34:10 GMT 48.116161 8.134813 23,550 38 447 1088
2020-01-23 22:34:06 GMT 48.108433 8.125728 23,475 38 445 1472
2020-01-23 22:34:00 GMT 48.100204 8.116150 23,325 38 445 1472
2020-01-23 22:33:57 GMT 48.091278 8.105507 23,225 38 445 1536
2020-01-23 22:33:54 GMT 48.091278 8.105507 23,125 38 445 1536
2020-01-23 22:33:51 GMT 48.085110 8.098262 23,125 38 445 1536
2020-01-23 22:33:48 GMT 48.079605 8.091774 23,025 38 445 1472
2020-01-23 22:33:45 GMT 48.075119 8.086418 22,975 38 446 1472
2020-01-23 22:33:41 GMT 48.069305 8.079552 22,875 38 445 1472
2020-01-23 22:33:38 GMT 48.062759 8.071999 22,775 38 444 1472
2020-01-23 22:33:35 GMT 48.058319 8.066711 22,700 38 444 1536
2020-01-23 22:33:32 GMT 48.055084 8.062697 22,600 38 443 1600
2020-01-23 22:33:29 GMT 48.050941 8.057908 22,600 38 441 1664
2020-01-23 22:33:26 GMT 48.045456 8.051399 22,525 38 441 1856
2020-01-23 22:33:23 GMT 48.039440 8.044175 22,350 38 438 1856
2020-01-23 22:33:20 GMT 48.034103 8.037872 22,275 38 436 1792
2020-01-23 22:33:17 GMT 48.030853 8.034096 22,200 38 436 1792
2020-01-23 22:33:14 GMT 48.026550 8.028946 22,175 38 434 1792
2020-01-23 22:33:11 GMT 48.021423 8.022903 22,050 38 433 1792
2020-01-23 22:33:08 GMT 48.017624 8.018440 22,000 38 432 1792
2020-01-23 22:33:05 GMT 48.013000 8.012977 21,850 38 431 1664
2020-01-23 22:33:02 GMT 48.003387 8.001617 21,725 38 430 1472
2020-01-23 22:32:55 GMT 47.995834 7.992897 21,600 37 429 1472
2020-01-23 22:32:52 GMT 47.991348 7.987747 21,500 37 429 1536
2020-01-23 22:32:49 GMT 47.986744 7.982412 21,450 37 429 1536
2020-01-23 22:32:46 GMT 47.982605 7.977585 21,350 37 429 1536
2020-01-23 22:32:43 GMT 47.973862 7.967491 21,250 37 429 1600
2020-01-23 22:32:37 GMT 47.963375 7.955651 21,100 37 429 1600
2020-01-23 22:32:34 GMT 47.963375 7.955651 21,025 37 429 1600
2020-01-23 22:32:31 GMT 47.958755 7.950119 20,975 37 428 1600
2020-01-23 22:32:28 GMT 47.953079 7.943596 20,825 37 428 1792
2020-01-23 22:32:24 GMT 47.947403 7.937073 20,775 37 426 2176
2020-01-23 22:32:21 GMT 47.943146 7.932129 20,525 37 422 3072
2020-01-23 22:32:18 GMT 47.937653 7.925606 20,475 37 422 3008
2020-01-23 22:32:15 GMT 47.928696 7.915297 20,300 37 421 3136
2020-01-23 22:32:12 GMT 47.928696 7.915297 20,175 37 421 3136
2020-01-23 22:32:08 GMT 47.922550 7.908255 19,975 37 419 3200
2020-01-23 22:32:05 GMT 47.918732 7.903959 19,850 37 419 3072
2020-01-23 22:32:02 GMT 47.910168 7.894170 19,550 37 417 3136
2020-01-23 22:31:56 GMT 47.904675 7.887972 19,350 37 415 3264
2020-01-23 22:31:53 GMT 47.899521 7.882004 19,125 37 414 3200
2020-01-23 22:31:50 GMT 47.896248 7.878183 19,050 37 413 3136
2020-01-23 22:31:47 GMT 47.891453 7.872549 18,925 37 412 3136
2020-01-23 22:31:44 GMT 47.885262 7.865648 18,675 37 411 3328
2020-01-23 22:31:41 GMT 47.882721 7.862572 18,475 37 410 3328
2020-01-23 22:31:38 GMT 47.878742 7.858112 18,375 37 409 3392
2020-01-23 22:31:35 GMT 47.873108 7.851585 18,275 37 408 3456
2020-01-23 22:31:32 GMT 47.867615 7.845406 18,150 37 407 3584
2020-01-23 22:31:28 GMT 47.861938 7.839097 17,725 37 405 3712
2020-01-23 22:31:25 GMT 47.857796 7.834238 17,600 37 405 3712
2020-01-23 22:31:22 GMT 47.853333 7.829132 17,475 37 405 3648
2020-01-23 22:31:19 GMT 47.847881 7.822618 17,175 37 403 3584
2020-01-23 22:31:15 GMT 47.843552 7.817970 16,825 37 401 3392
2020-01-23 22:31:12 GMT 47.838943 7.812477 16,800 38 401 3392
2020-01-23 22:31:09 GMT 47.835499 7.808321 16,700 38 400 3392
2020-01-23 22:31:06 GMT 47.829987 7.802010 16,400 38 397 3392
2020-01-23 22:31:03 GMT 47.825867 7.797203 16,325 38 397 3456
2020-01-23 22:31:00 GMT 47.821930 7.792397 16,225 38 396 3456
2020-01-23 22:30:57 GMT 47.816971 7.786701 15,975 38 394 3392
2020-01-23 22:30:54 GMT 47.812820 7.781548 15,775 39 393 3328
2020-01-23 22:30:51 GMT 47.809055 7.777123 15,525 39 391 3264
2020-01-23 22:30:45 GMT 47.799789 7.765433 15,275 40 386 3840
2020-01-23 22:30:42 GMT 47.795151 7.759575 15,175 40 387 3904
2020-01-23 22:30:39 GMT 47.792763 7.756348 15,050 41 386 3776
2020-01-23 22:30:34 GMT 47.785904 7.746185 14,625 47 383 4032
2020-01-23 22:30:31 GMT 47.783157 7.741585 14,225 52 381 4160
2020-01-23 22:30:28 GMT 47.779358 7.734032 14,225 52 381 4160
2020-01-23 22:30:25 GMT 47.776978 7.728882 14,000 56 379 3904
2020-01-23 22:30:22 GMT 47.774235 7.722191 13,900 59 379 3584
2020-01-23 22:30:19 GMT 47.769581 7.708247 13,525 64 374 4224
2020-01-23 22:30:16 GMT 47.766678 7.699493 12,800 65 364 1856
2020-01-23 22:30:13 GMT 47.766678 7.699493 13,100 65 374 4224
2020-01-23 22:30:10 GMT 47.765305 7.694893 12,975 65 374 4224
2020-01-23 22:30:07 GMT 47.763062 7.687824 12,750 65 372 3328
2020-01-23 22:30:04 GMT 47.759445 7.676353 12,575 65 370 2624
2020-01-23 22:30:01 GMT 47.758942 7.674431 12,500 65 368 2176
2020-01-23 22:29:58 GMT 47.756516 7.667084 12,450 65 366 1920
2020-01-23 22:29:55 GMT 47.754456 7.659874 12,375 65 360 1728
2020-01-23 22:29:52 GMT 47.749004 7.641625 12,150 66 349 1792
2020-01-23 22:29:48 GMT 47.749004 7.641625 12,150 66 349 1792
2020-01-23 22:29:45 GMT 47.747604 7.636343 12,025 67 343 1792
2020-01-23 22:29:42 GMT 47.745884 7.630357 11,950 71 323 1920
2020-01-23 22:29:39 GMT 47.744160 7.623455 11,850 69 333 1856
2020-01-23 22:29:36 GMT 47.742645 7.617096 11,675 71 324 1920
2020-01-23 22:29:33 GMT 47.739899 7.605286 11,650 71 320 1920
2020-01-23 22:29:30 GMT 47.739899 7.605286 11,525 72 316 1984
2020-01-23 22:29:27 GMT 47.738663 7.599449 10,225 104 262 4096
2020-01-23 22:29:23 GMT 47.736107 7.584299 11,300 78 304 1856
2020-01-23 22:29:20 GMT 47.735779 7.578300 11,200 84 297 1600
2020-01-23 22:29:14 GMT 47.735779 7.573494 11,025 93 288 1536
2020-01-23 22:29:10 GMT 47.736465 7.564224 10,975 100 279 1664
2020-01-23 22:29:07 GMT 47.737133 7.559439 10,225 104 262 4096
2020-01-23 22:29:03 GMT 47.738159 7.553238 10,775 104 268 2752
2020-01-23 22:29:00 GMT 47.739532 7.545547 10,525 104 264 3520
2020-01-23 22:28:57 GMT 47.740219 7.541222 10,225 104 262 4096
2020-01-23 22:28:53 GMT 47.741787 7.532466 10,100 104 262 4096
2020-01-23 22:28:50 GMT 47.742298 7.529015 9,825 103 264 4160
2020-01-23 22:28:47 GMT 47.743149 7.523712 9,825 103 264 4160
2020-01-23 22:28:44 GMT 47.744022 7.518381 9,475 102 264 4160
2020-01-23 22:28:41 GMT 47.744534 7.514085 9,325 101 266 3968
2020-01-23 22:28:37 GMT 47.745560 7.505493 8,750 95 266 3264
2020-01-23 22:28:34 GMT 47.746071 7.500352 8,850 96 266 3328
2020-01-23 22:28:31 GMT 47.746399 7.495766 8,700 95 266 3264
2020-01-23 22:28:28 GMT 47.746769 7.490281 8,600 94 265 3200
2020-01-23 22:28:24 GMT 47.746765 7.477570 8,225 86 263 3776
2020-01-23 22:28:21 GMT 47.745712 7.468300 7,925 78 264 3776
2020-01-23 22:28:17 GMT 47.745712 7.468300 7,675 71 264 3776
2020-01-23 22:28:13 GMT 47.742439 7.457463 7,525 63 263 3648
2020-01-23 22:28:10 GMT 47.742439 7.457463 7,375 57 263 3584
2020-01-23 22:28:06 GMT 47.740391 7.453308 7,225 49 262 3456
2020-01-23 22:28:03 GMT 47.735413 7.446121 6,900 36 259 3264
2020-01-23 22:27:59 GMT 47.734058 7.444787 6,750 30 256 3392
2020-01-23 22:27:56 GMT 47.730801 7.442040 6,625 24 255 3648
2020-01-23 22:27:52 GMT 47.725449 7.439293 6,325 10 250 3584
2020-01-23 22:27:49 GMT 47.722366 7.438568 6,125 2 248 3200
2020-01-23 22:27:46 GMT 47.718750 7.438568 6,025 356 244 2752
2020-01-23 22:27:42 GMT 47.714973 7.439434 5,700 343 235 2624
2020-01-23 22:27:39 GMT 47.711884 7.440834 5,575 338 231 3072
2020-01-23 22:27:36 GMT 47.708454 7.442674 5,575 336 228 3328
2020-01-23 22:27:29 GMT 47.702312 7.447815 5,175 329 223 4160
2020-01-23 22:27:26 GMT 47.699707 7.450241 4,950 328 223 3968
2020-01-23 22:27:19 GMT 47.692860 7.456759 4,525 327 221 2368
2020-01-23 22:27:15 GMT 47.690441 7.459013 4,425 330 211 1408
2020-01-23 22:27:11 GMT 47.686478 7.462601 4,325 331 207 1344
2020-01-23 22:27:08 GMT 47.682014 7.466196 4,200 332 204 1344
2020-01-23 22:27:00 GMT 47.677219 7.469999 4,050 334 191 1344
2020-01-23 22:26:55 GMT 47.674149 7.472252 4,000 334 187 1408
2020-01-23 22:26:50 GMT 47.670189 7.474999 3,850 336 178 1536
2020-01-23 22:26:45 GMT 47.666748 7.477226 3,725 337 172 1856
2020-01-23 22:26:41 GMT 47.662460 7.479788 3,525 339 166 2368
2020-01-23 22:26:36 GMT 47.660065 7.481140 3,425 337 167 4288
2020-01-23 22:26:30 GMT 47.655579 7.483749 3,050 340 164 3648
2020-01-23 22:26:25 GMT 47.650963 7.486478 2,800 338 165 4160
2020-01-23 22:26:19 GMT 47.647705 7.488732 2,125 333 175 3136
2020-01-23 22:26:16 GMT 47.645145 7.490563 2,125 332 168 3136
2020-01-23 22:26:09 GMT 47.640488 7.494014 1,825 333 174 2688
2020-01-23 22:26:06 GMT 47.638596 7.495422 1,675 333 172 2688
2020-01-23 22:25:56 GMT 47.631546 7.500916 1,200 334 169 2816
2020-01-23 22:25:47 GMT 47.625046 7.505516 725 335 168 3072
2020-01-23 22:25:44 GMT 47.622662 7.507043 650 336 171 2496
2020-01-23 22:25:41 GMT 47.620743 7.508469 475 335 157 192
2020-01-23 22:25:35 GMT 47.616470 7.511338 575 336 142 128
2020-01-23 22:25:24 GMT 47.611115 7.515141 575 333 94 128
2020-01-23 22:25:20 GMT 47.609764 7.515987 550 336 76 64
2020-01-23 22:25:14 GMT 47.607857 7.517184 550 331 38 64
2020-01-23 22:25:09 GMT 47.607716 7.517395 525 337 7 0
2020-01-23 22:25:03 GMT 47.607346 7.517536 525 339 5 0
2020-01-23 22:24:55 GMT 47.607204 7.517747 525 346 4 0
2020-01-23 22:24:41 GMT 47.606693 7.518029 525 330 11 0
2020-01-23 22:24:32 GMT 47.606831 7.518592 525 252 9 0
2020-01-23 22:24:24 GMT 47.606831 7.519085 500 252 9 0
2020-01-23 22:24:13 GMT 47.607018 7.519789 500 258 9 0
2020-01-23 22:23:58 GMT 47.607368 7.520494 0 188 8 0
2020-01-23 22:23:54 GMT 47.607536 7.520313 0 154 8
2020-01-23 22:23:48 GMT 47.607704 7.520318 0 154 8
2020-01-23 22:23:44 GMT 47.607880 7.520142 0 154 7
2020-01-23 22:23:35 GMT 47.608055 7.519966 0 154 7
2020-01-23 22:23:24 GMT 47.608231 7.519807 0 154 5
2020-01-23 22:23:13 GMT 47.608395 7.519627 0 157 0
2020-01-23 22:22:59 GMT 47.608395 7.519627 0 157 2
2020-01-23 22:22:53 GMT 47.608215 7.519631 0 157 0
2020-01-23 22:22:48 GMT 47.608223 7.519627 0 157 2
2020-01-23 22:22:40 GMT 47.608223 7.519798 0 157 2
2020-01-23 22:22:24 GMT 47.608055 7.519807 0 157 2
2020-01-23 22:21:57 GMT 47.607880 7.519807 0 157 2
2020-01-23 22:21:47 GMT 47.607708 7.519970 0 157 2
2020-01-23 22:21:24 GMT 47.607536 7.519970 0 157 2
2020-01-23 22:21:16 GMT 47.607540 7.519966 0 157 2
2020-01-23 22:21:04 GMT 47.607365 7.520142 0 157 2
2020-01-23 22:21:01 GMT 47.607357 7.520142 0 157 0
2020-01-23 22:20:48 GMT 47.607193 7.520142 0 157 2
2020-01-23 22:20:24 GMT 47.607021 7.520142 0 157 2
2020-01-23 22:20:21 GMT 47.607018 7.520318 0 157 2
2020-01-23 22:19:47 GMT 47.606850 7.520313 0 157 2
2020-01-23 22:19:10 GMT 47.606506 7.520494 0 157 0
2020-01-23 22:19:06 GMT 47.606506 7.520485 0 157 2
2020-01-23 22:18:58 GMT 47.606331 7.520494 0 157 2
2020-01-23 22:18:39 GMT 47.606335 7.520657 0 157 2
2020-01-23 22:18:30 GMT 47.606171 7.520652 0 157 2
2020-01-23 22:18:17 GMT 47.606163 7.520657 0 157 2
2020-01-23 22:18:08 GMT 47.605995 7.520652 0 157 2
2020-01-23 22:17:58 GMT 47.605991 7.520657 0 157 0
2020-01-23 22:17:34 GMT 47.605820 7.520828 0 157 2
2020-01-23 22:17:23 GMT 47.605648 7.520828 0 157 2
2020-01-23 22:17:15 GMT 47.605644 7.520828 0 157 2
2020-01-23 22:16:59 GMT 47.605476 7.521000 0 157 0
2020-01-23 22:16:55 GMT 47.605480 7.521004 0 157 2
2020-01-23 22:16:44 GMT 47.605476 7.521000 0 157 2
2020-01-23 22:16:35 GMT 47.605297 7.521004 0 157 2
2020-01-23 22:16:28 GMT 47.605305 7.521000 0 157 2
2020-01-23 22:16:02 GMT 47.605133 7.521180 0 157 0
2020-01-23 22:15:56 GMT 47.605133 7.521172 0 157 2
2020-01-23 22:15:45 GMT 47.604961 7.521172 0 157 2
2020-01-23 22:15:36 GMT 47.604961 7.521172 0 157 2
2020-01-23 22:15:26 GMT 47.604790 7.521172 0 157 2
2020-01-23 22:15:15 GMT 47.604790 7.521343 0 157 2
2020-01-23 22:14:52 GMT 47.604622 7.521339 0 157 2
2020-01-23 22:14:41 GMT 47.604446 7.521339 0 157 2
2020-01-23 22:14:35 GMT 47.604446 7.521343 0 157 2
2020-01-23 22:14:12 GMT 47.604271 7.521515 0 157 2
2020-01-23 22:14:03 GMT 47.604275 7.521515 0 157 2
2020-01-23 22:13:55 GMT 47.604271 7.521515 0 157 2
2020-01-23 22:13:41 GMT 47.604111 7.521515 0 157 2
2020-01-23 22:13:35 GMT 47.604103 7.521515 0 157 2
2020-01-23 22:13:26 GMT 47.603935 7.521691 0 157 2
2020-01-23 22:13:08 GMT 47.603931 7.521687 0 157 2
2020-01-23 22:12:39 GMT 47.603760 7.521691 0 157 0
2020-01-23 22:12:15 GMT 47.603584 7.521867 0 157 0
2020-01-23 22:12:04 GMT 47.603420 7.521867 0 157 0
2020-01-23 22:11:24 GMT 47.603249 7.521867 0 157 2
2020-01-23 22:10:52 GMT 47.603073 7.522025 0 157 0
2020-01-23 22:10:02 GMT 47.602737 7.522025 0 157 0
2020-01-23 22:09:54 GMT 47.602730 7.522030 0 157 2
2020-01-23 22:09:42 GMT 47.602562 7.522025 0 157 4
2020-01-23 22:09:32 GMT 47.602386 7.522202 0 160 5
2020-01-23 22:09:25 GMT 47.602215 7.522202 0 160 5
2020-01-23 22:09:16 GMT 47.602051 7.522378 0 149 4
2020-01-23 22:09:12 GMT 47.602051 7.522554 0 137 4
2020-01-23 22:09:05 GMT 47.601875 7.522554 0 123 5
2020-01-23 22:08:56 GMT 47.601875 7.522888 0 104 5
2020-01-23 22:08:52 GMT 47.601871 7.522888 0 104 5
2020-01-23 22:08:45 GMT 47.601875 7.523240 0 101 5
2020-01-23 22:08:42 GMT 47.601700 7.523223 0 101 5
2020-01-23 22:08:35 GMT 47.601700 7.523399 0 104 5
2020-01-23 22:08:32 GMT 47.601700 7.523575 0 104 5
2020-01-23 22:08:22 GMT 47.601528 7.523746 0 104 5
2020-01-23 22:08:12 GMT 47.601528 7.523918 0 106 5
2020-01-23 22:08:05 GMT 47.601360 7.524085 0 106 5
2020-01-23 22:08:01 GMT 47.601360 7.524261 0 106 5
2020-01-23 22:07:55 GMT 47.601185 7.524433 0 109 5
2020-01-23 22:07:50 GMT 47.601189 7.524614 0 109 4
2020-01-23 22:07:45 GMT 47.601185 7.524605 0 109 4
2020-01-23 22:07:41 GMT 47.601185 7.524776 0 109 4
2020-01-23 22:07:35 GMT 47.601013 7.524776 0 109 3
2020-01-23 22:07:25 GMT 47.601013 7.524948 0 109 2
2020-01-23 22:07:17 GMT 47.600838 7.524948 0 109 0
2020-01-23 22:07:00 GMT 47.600838 7.524948 0 109 0
2020-01-23 22:06:54 GMT 47.600842 7.524948 0 109 1

Making use of Plane Finder data

You are free to use the raw flight data, aircraft information and images provided in this report for your own purposes provided the data is correctly attributed to Plane Finder. We ask that you please credit Plane Finder and link to planefinder.net in close proximity to the content.

Optionally one of the following logos (no smaller then 150x24px) can be used and must link to planefinder.net

Embedding the Plane Finder map

You are welcome to embed the Plane Finder playback map on your website to offer visitors a more interactive experience. We suggest using the following HTML code:

<iframe src="//planefinder.net/data/report/QY4911-S5-ABW-7700-squawk-2020-01-23/map" width="800" height="600" seamless="seamless"></iframe>

Where our data comes from

Plane Finder has a global network of data feeds and antenna radars that receive data broadcast directly from aircraft. The primary technologies used are ADS-B and MLAT. We also show feeds from the FAA and a FLARM glider feed.

Click here to find out more about the Plane Finder network.

How we collect our data